Time;durP1;ratioP1;P1;durP2;ratioP2;P2;SDS_P1;SDS_P2;PMS_P1;PMS_P2;Temp;Humidity;BMP_temperature;BMP_pressure;BME280_temperature;BME280_humidity;BME280_pressure;Samples;Min_cycle;Max_cycle;Signal;HPM_P1;HPM_P2
2022/07/04 00:02:21;;;;;;;12.77;5.45;;;;;;;23.15;68.21;94971.66;4975544;28;20205;-76
2022/07/04 00:05:14;;;;;;;9.82;5.32;;;;;;;23.19;68.77;94969.22;4975476;28;20611;-76
2022/07/04 00:08:04;;;;;;;7.25;5.13;;;;;;;23.21;68.09;94966.28;4975836;28;20588;-76
2022/07/04 00:10:54;;;;;;;10.57;4.88;;;;;;;23.19;68.47;94969.22;4975246;28;20208;-75
2022/07/04 00:13:58;;;;;;;7.03;4.78;;;;;;;23.23;66.92;94966.78;4974505;28;20215;-76
2022/07/04 00:16:45;;;;;;;7.15;5.35;;;;;;;23.24;66.97;94966.47;4974666;28;20287;-76
2022/07/04 00:19:30;;;;;;;10.40;5.00;;;;;;;23.14;67.23;94969.31;4975369;28;20679;-76
2022/07/04 00:22:21;;;;;;;10.07;5.20;;;;;;;23.07;66.46;94974.19;4974944;28;20240;-76
2022/07/04 00:25:06;;;;;;;7.18;4.90;;;;;;;23.10;66.94;94974.41;4975364;28;20256;-76
2022/07/04 00:28:13;;;;;;;7.85;5.28;;;;;;;23.07;66.75;94969.66;4975555;28;20215;-76
2022/07/04 00:31:07;;;;;;;8.65;5.15;;;;;;;23.09;66.46;94967.50;4975295;28;20562;-76
2022/07/04 00:33:59;;;;;;;7.85;5.18;;;;;;;23.09;66.86;94956.91;4975214;28;20240;-77
2022/07/04 00:36:51;;;;;;;8.93;4.80;;;;;;;23.13;66.83;94955.25;4974925;28;20208;-76
2022/07/04 00:42:29;;;;;;;10.32;5.03;;;;;;;23.20;65.90;94946.16;4975001;28;20687;-76
2022/07/04 00:45:20;;;;;;;9.38;5.07;;;;;;;23.05;65.91;94950.59;4974721;28;20212;-76
2022/07/04 00:48:11;;;;;;;11.02;4.82;;;;;;;23.12;65.77;94951.00;4974843;28;20287;-76
2022/07/04 00:54:02;;;;;;;8.80;4.78;;;;;;;23.14;65.21;94948.84;4971632;28;20208;-76
2022/07/04 00:56:54;;;;;;;7.47;5.03;;;;;;;23.16;65.29;94957.34;4974663;28;20287;-76
2022/07/04 00:59:38;;;;;;;9.23;4.75;;;;;;;23.16;64.83;94954.69;4972812;28;20259;-75
2022/07/04 01:02:38;;;;;;;8.60;4.53;;;;;;;23.08;65.28;94944.72;4972504;28;20208;-74
2022/07/04 01:05:30;;;;;;;8.60;4.90;;;;;;;23.04;65.60;94948.22;4974222;28;20670;-74
2022/07/04 01:08:19;;;;;;;11.45;5.00;;;;;;;22.89;65.31;94941.28;4974173;28;20564;-74
2022/07/04 01:10:54;;;;;;;8.73;4.78;;;;;;;22.85;65.61;94947.47;4974007;28;20288;-74
2022/07/04 01:13:45;;;;;;;8.15;5.00;;;;;;;22.76;65.93;94952.63;4974566;28;20259;-74
2022/07/04 01:16:29;;;;;;;11.32;4.45;;;;;;;22.67;65.79;94953.53;4974166;28;20201;-74
2022/07/04 01:19:21;;;;;;;7.85;4.45;;;;;;;22.63;65.95;94955.16;4974215;28;20204;-74
2022/07/04 01:22:22;;;;;;;7.38;4.88;;;;;;;22.60;66.33;94953.84;4974122;28;20235;-74
2022/07/04 01:25:17;;;;;;;11.20;4.32;;;;;;;22.61;65.02;94953.59;4973492;28;20208;-74
2022/07/04 01:28:06;;;;;;;5.82;4.18;;;;;;;22.53;64.92;94943.63;4974389;28;20237;-74
2022/07/04 01:30:58;;;;;;;7.30;4.13;;;;;;;22.53;64.20;94948.94;4974217;28;20651;-74
2022/07/04 01:33:56;;;;;;;8.20;4.25;;;;;;;22.57;64.11;94949.91;4974401;28;20205;-74
2022/07/04 01:36:47;;;;;;;9.93;4.03;;;;;;;22.52;64.08;94949.19;4972448;28;20299;-74
2022/07/04 01:39:41;;;;;;;9.52;4.50;;;;;;;22.47;64.33;94944.75;4974161;28;20200;-75
2022/07/04 01:42:27;;;;;;;9.05;3.83;;;;;;;22.48;64.43;94948.97;4973993;28;20237;-75
2022/07/04 01:45:10;;;;;;;7.65;3.97;;;;;;;22.48;63.88;94953.50;4973436;28;20589;-75
2022/07/04 01:47:56;;;;;;;5.10;3.95;;;;;;;22.43;63.95;94959.63;4973691;28;20212;-75
2022/07/04 01:50:45;;;;;;;8.75;4.03;;;;;;;22.41;63.84;94953.06;4971226;28;20687;-75
2022/07/04 01:53:38;;;;;;;7.03;4.00;;;;;;;22.40;63.48;94954.13;4974079;28;20259;-75
2022/07/04 01:56:39;;;;;;;;;;;;;;;;;;;;;
2022/07/04 02:02:29;;;;;;;6.68;4.20;;;;;;;22.38;63.46;94956.25;4972627;28;20283;-75
2022/07/04 02:05:14;;;;;;;7.38;4.20;;;;;;;22.35;64.02;94957.63;4973401;28;20224;-75
2022/07/04 02:08:04;;;;;;;5.78;3.60;;;;;;;22.36;63.26;94958.41;4973153;28;20667;-75
2022/07/04 02:10:56;;;;;;;8.10;4.10;;;;;;;22.35;62.98;94956.84;4973223;28;20208;-74
2022/07/04 02:13:43;;;;;;;4.70;4.10;;;;;;;22.30;63.60;94962.19;4972596;28;20275;-74
2022/07/04 02:16:31;;;;;;;9.48;4.20;;;;;;;22.27;62.85;94952.16;4973393;28;20244;-74
2022/07/04 02:19:18;;;;;;;8.20;4.00;;;;;;;22.26;62.48;94967.25;4973708;28;20240;-74
2022/07/04 02:22:22;;;;;;;6.82;4.35;;;;;;;22.23;62.65;94973.13;4973362;28;20228;-74
2022/07/04 02:25:11;;;;;;;9.57;4.40;;;;;;;22.20;62.24;94962.31;4973455;28;20627;-75
2022/07/04 02:28:06;;;;;;;8.75;4.15;;;;;;;22.20;61.77;94968.41;4973579;28;20227;-75
2022/07/04 02:31:05;;;;;;;5.78;3.83;;;;;;;22.19;61.85;94972.13;4972932;28;20525;-74
2022/07/04 02:33:59;;;;;;;7.13;4.03;;;;;;;22.15;62.06;94970.31;4973092;28;20831;-74
2022/07/04 02:36:43;;;;;;;4.72;3.67;;;;;;;22.16;61.96;94970.03;4973032;28;20296;-74
2022/07/04 02:39:34;;;;;;;5.88;4.07;;;;;;;22.18;61.58;94965.25;4973196;28;20664;-74
2022/07/04 02:42:22;;;;;;;10.35;3.80;;;;;;;22.13;61.04;94969.81;4973369;28;20222;-74
2022/07/04 02:45:23;;;;;;;9.45;4.00;;;;;;;22.05;62.10;94969.34;4973333;28;20209;-74
2022/07/04 02:48:22;;;;;;;5.38;4.00;;;;;;;22.06;61.54;94970.16;4973018;28;20684;-74
2022/07/04 02:51:13;;;;;;;8.63;4.22;;;;;;;22.04;62.08;94983.69;4972679;28;20584;-74
2022/07/04 02:54:10;;;;;;;8.30;4.25;;;;;;;22.03;61.98;94987.38;4972685;28;20231;-74
2022/07/04 02:57:03;;;;;;;8.60;4.60;;;;;;;21.98;61.94;94990.09;4972925;28;20267;-74
2022/07/04 03:02:49;;;;;;;5.30;4.20;;;;;;;21.92;60.99;94985.13;4972244;28;20239;-74
2022/07/04 03:05:48;;;;;;;8.55;4.47;;;;;;;21.89;61.00;94991.75;4972392;28;20295;-74
2022/07/04 03:08:40;;;;;;;9.93;4.40;;;;;;;21.84;60.97;94998.94;4972539;28;20299;-74
2022/07/04 03:11:29;;;;;;;7.97;4.55;;;;;;;21.67;60.79;94990.63;4969970;28;20209;-74
2022/07/04 03:14:10;;;;;;;6.97;4.38;;;;;;;21.65;61.73;94996.19;4972739;28;20234;-74
2022/07/04 03:17:08;;;;;;;7.20;4.82;;;;;;;21.67;62.65;94990.63;4972737;28;20205;-74
2022/07/04 03:20:00;;;;;;;12.07;5.20;;;;;;;21.61;65.13;95000.47;4972099;28;20212;-74
2022/07/04 03:22:51;;;;;;;8.23;5.30;;;;;;;21.47;67.68;94995.00;4933704;29;20208;-74
2022/07/04 03:25:43;;;;;;;17.63;6.18;;;;;;;21.35;71.71;94989.31;4932690;29;20217;-74
2022/07/04 03:28:39;;;;;;;15.02;6.70;;;;;;;21.21;73.12;94980.41;4934217;29;20201;-74
2022/07/04 03:31:26;;;;;;;8.85;6.22;;;;;;;21.29;74.07;94998.34;4933702;29;20293;-74
2022/07/04 03:34:18;;;;;;;15.38;6.88;;;;;;;21.33;75.14;94999.34;4934071;29;20373;-74
2022/07/04 03:37:02;;;;;;;12.70;6.90;;;;;;;21.41;74.48;94995.34;4934074;29;20209;-74
2022/07/04 03:40:00;;;;;;;14.10;6.53;;;;;;;21.40;74.52;94997.19;4933813;29;20210;-74
2022/07/04 03:42:48;;;;;;;11.60;6.13;;;;;;;21.41;73.15;94990.81;4933897;29;20209;-74
2022/07/04 03:45:44;;;;;;;9.90;5.90;;;;;;;21.44;71.84;95000.84;4934006;29;20283;-74
2022/07/04 03:48:36;;;;;;;17.27;6.18;;;;;;;21.47;70.90;95000.31;4934319;29;20639;-74
2022/07/04 03:51:22;;;;;;;13.45;6.30;;;;;;;21.40;71.19;94999.84;4933325;29;20589;-74
2022/07/04 03:54:11;;;;;;;13.45;6.43;;;;;;;21.40;71.66;94988.47;4933548;29;20261;-74
2022/07/04 03:56:53;;;;;;;18.73;6.72;;;;;;;21.44;71.48;94987.63;4933694;29;20209;-74
2022/07/04 03:59:44;;;;;;;13.63;6.50;;;;;;;21.45;71.77;94991.88;4933707;29;20210;-74
2022/07/04 04:02:40;;;;;;;25.88;6.63;;;;;;;21.44;72.55;94990.28;4933059;29;20661;-74
2022/07/04 04:05:33;;;;;;;16.65;6.65;;;;;;;21.46;73.13;94993.44;4933272;29;20213;-74
2022/07/04 04:08:33;;;;;;;14.82;6.80;;;;;;;21.46;74.21;94993.44;4933432;29;20225;-73
2022/07/04 04:11:15;;;;;;;8.63;6.20;;;;;;;21.42;74.55;94991.63;4933569;29;20201;-74
2022/07/04 04:14:28;;;;;;;14.27;6.95;;;;;;;21.40;74.65;94991.13;4932528;29;20233;-74
2022/07/04 04:17:14;;;;;;;10.15;7.13;;;;;;;21.43;75.64;94996.66;4933193;29;20214;-74
2022/07/04 04:20:08;;;;;;;9.65;7.05;;;;;;;21.40;76.22;94991.13;4933249;29;20696;-75
2022/07/04 04:25:44;;;;;;;14.65;7.57;;;;;;;21.34;78.42;94998.31;4932736;29;20925;-74
2022/07/04 04:28:43;;;;;;;11.65;8.15;;;;;;;21.30;79.46;94997.25;4933534;29;20210;-75
2022/07/04 04:31:43;;;;;;;16.23;9.48;;;;;;;21.28;80.54;94998.59;4932308;29;20210;-74
2022/07/04 04:34:34;;;;;;;14.73;8.95;;;;;;;21.21;82.20;94998.16;4936635;29;20202;-74
2022/07/04 04:37:21;;;;;;;13.27;8.88;;;;;;;21.33;81.60;95006.50;4936561;29;20210;-74
2022/07/04 04:40:06;;;;;;;19.05;8.82;;;;;;;21.48;80.55;95009.81;4936420;29;20209;-74
2022/07/04 04:42:56;;;;;;;13.35;8.35;;;;;;;21.54;80.26;95015.06;4936478;29;20292;-74
2022/07/04 04:45:52;;;;;;;11.75;8.43;;;;;;;21.49;78.99;95003.47;4936209;29;20210;-73
2022/07/04 04:48:46;;;;;;;11.77;7.50;;;;;;;21.47;77.25;95015.41;4936436;29;20206;-74
2022/07/04 04:51:31;;;;;;;13.82;7.65;;;;;;;21.57;76.28;95011.88;4936410;29;20677;-74
2022/07/04 04:54:30;;;;;;;12.57;7.50;;;;;;;21.57;75.72;95006.59;4935790;29;20233;-74
2022/07/04 04:57:23;;;;;;;12.68;7.32;;;;;;;21.70;74.30;95009.38;4936321;29;20294;-74
2022/07/04 05:00:16;;;;;;;11.70;7.47;;;;;;;21.56;74.47;95010.31;4936253;29;20205;-74
2022/07/04 05:03:11;;;;;;;16.40;7.22;;;;;;;21.57;74.57;95010.03;4936176;29;20293;-74
2022/07/04 05:05:58;;;;;;;12.60;7.60;;;;;;;21.60;73.56;95009.47;4935972;29;20209;-75
2022/07/04 05:08:42;;;;;;;13.10;7.35;;;;;;;21.62;72.80;95009.19;4935977;29;20210;-75
2022/07/04 05:11:35;;;;;;;14.60;8.18;;;;;;;21.58;73.40;95010.81;4930875;29;20628;-75
2022/07/04 05:14:12;;;;;;;13.38;7.60;;;;;;;21.49;72.99;95003.47;4936163;29;20317;-75
2022/07/04 05:19:54;;;;;;;11.65;7.45;;;;;;;21.41;75.93;95003.28;4935566;29;20210;-74
2022/07/04 05:22:55;;;;;;;15.85;7.55;;;;;;;21.44;75.66;95006.16;4973951;28;20283;-74
2022/07/04 05:25:48;;;;;;;11.57;7.40;;;;;;;21.22;76.87;94999.72;4974087;28;20236;-74
2022/07/04 05:28:42;;;;;;;9.75;7.65;;;;;;;21.18;76.76;95006.63;4974132;28;20292;-74
2022/07/04 05:31:36;;;;;;;13.02;7.13;;;;;;;21.05;76.62;95002.72;4974088;28;20212;-74
2022/07/04 05:34:34;;;;;;;17.90;7.90;;;;;;;21.08;76.74;95004.03;4973582;28;20657;-74
2022/07/04 05:37:20;;;;;;;13.57;7.03;;;;;;;21.19;76.01;95001.06;4973799;28;20201;-75
2022/07/04 05:43:08;;;;;;;13.35;6.97;;;;;;;21.55;75.07;95009.50;4972929;28;20272;-75
2022/07/04 05:46:01;;;;;;;20.13;7.65;;;;;;;21.66;73.75;95004.91;4972745;28;20330;-75
2022/07/04 05:48:56;;;;;;;12.90;6.90;;;;;;;21.68;73.61;95006.22;4973567;28;20212;-75
2022/07/04 05:51:41;;;;;;;13.70;6.80;;;;;;;21.79;72.74;95001.66;4972421;28;20233;-75
2022/07/04 05:54:37;;;;;;;15.63;6.97;;;;;;;21.80;73.87;94995.25;4973404;28;20260;-74
2022/07/04 05:57:39;;;;;;;13.13;6.75;;;;;;;21.85;71.66;95003.94;4973555;28;20205;-75
2022/07/04 06:00:26;;;;;;;14.05;6.63;;;;;;;;;;4973699;28;20208;-73
2022/07/04 06:03:18;;;;;;;13.00;7.22;;;;;;;22.00;72.83;95003.03;4973560;28;20207;-75
2022/07/04 06:09:03;;;;;;;9.98;6.60;;;;;;;22.36;69.33;95009.53;4973192;28;20295;-74
2022/07/04 06:11:54;;;;;;;11.45;6.70;;;;;;;22.48;68.38;95004.59;4973054;28;20204;-75
2022/07/04 06:15:00;;;;;;;11.50;6.50;;;;;;;22.48;67.63;94995.91;4973248;28;20260;-75
2022/07/04 06:17:44;;;;;;;14.15;6.40;;;;;;;22.60;67.17;95006.84;4973086;28;20197;-75
2022/07/04 06:20:35;;;;;;;14.85;6.50;;;;;;;22.72;66.81;95007.28;4972977;28;20283;-75
2022/07/04 06:23:20;;;;;;;12.20;6.45;;;;;;;22.81;65.88;95002.91;4973234;28;20252;-75
2022/07/04 06:26:08;;;;;;;16.58;6.28;;;;;;;22.84;67.09;94999.69;4973037;28;20263;-75
2022/07/04 06:29:06;;;;;;;19.58;6.63;;;;;;;22.92;66.67;94999.03;4973280;28;20209;-75
2022/07/04 06:31:59;;;;;;;10.05;5.57;;;;;;;22.94;65.17;95006.72;4972846;28;20209;-76
2022/07/04 06:40:50;;;;;;;10.27;5.35;;;;;;;22.98;61.21;94995.25;4972044;28;20310;-75
2022/07/04 06:43:35;;;;;;;12.70;5.32;;;;;;;23.05;62.28;94998.34;4972698;28;20747;-75
2022/07/04 06:46:14;;;;;;;9.43;5.50;;;;;;;23.12;62.95;94996.09;4972113;28;20287;-75
2022/07/04 06:49:05;;;;;;;12.88;6.05;;;;;;;23.22;61.68;94997.03;4966447;28;20523;-74
2022/07/04 06:52:09;;;;;;;14.68;6.20;;;;;;;23.32;60.50;94997.66;4971961;28;20197;-75
2022/07/04 06:57:42;;;;;;;9.93;4.68;;;;;;;23.46;57.25;94995.09;4970950;28;20223;-75
2022/07/04 07:00:34;;;;;;;6.78;3.70;;;;;;;23.60;56.06;94991.41;4972156;28;20208;-75
2022/07/04 07:03:27;;;;;;;7.47;4.47;;;;;;;23.75;52.95;94982.41;4971984;28;20579;-74
2022/07/04 07:06:21;;;;;;;11.73;4.13;;;;;;;24.03;54.05;94993.84;4972092;28;20275;-75
2022/07/04 07:09:10;;;;;;;6.30;3.80;;;;;;;24.18;52.92;94985.66;4966538;28;20205;-75
2022/07/04 07:12:04;;;;;;;5.85;3.80;;;;;;;24.20;52.37;94980.81;4972825;28;20205;-74
2022/07/04 07:15:00;;;;;;;10.75;4.43;;;;;;;24.21;51.56;94983.16;4966514;28;20708;-73
2022/07/04 07:17:50;;;;;;;9.88;3.80;;;;;;;24.27;52.60;94974.00;4968693;28;20340;-74
2022/07/04 07:20:29;;;;;;;12.60;4.30;;;;;;;24.36;53.11;94974.13;4971573;28;20295;-75
2022/07/04 07:23:32;;;;;;;8.77;4.35;;;;;;;24.35;53.22;94971.75;4966216;28;20671;-74
2022/07/04 07:26:19;;;;;;;8.85;4.07;;;;;;;24.38;53.96;94971.97;4972196;28;20212;-75
2022/07/04 07:29:09;;;;;;;8.43;4.68;;;;;;;24.45;54.51;94969.69;4972130;28;20236;-75
2022/07/04 07:32:00;;;;;;;13.13;4.90;;;;;;;24.53;54.55;94971.63;4972379;28;20228;-76
2022/07/04 07:34:52;;;;;;;9.43;4.65;;;;;;;24.65;54.36;94971.91;4971415;28;20228;-75
2022/07/04 07:37:43;;;;;;;8.52;4.82;;;;;;;24.73;54.80;94968.56;4971612;28;20200;-76
2022/07/04 07:40:37;;;;;;;10.95;5.03;;;;;;;24.83;55.68;94968.38;4972138;28;20209;-75
2022/07/04 07:43:29;;;;;;;5.75;4.35;;;;;;;24.92;54.41;94960.47;4971183;28;20220;-74
2022/07/04 07:46:20;;;;;;;9.55;4.75;;;;;;;24.95;53.78;94964.41;4971113;28;20880;-76
2022/07/04 07:49:03;;;;;;;8.05;4.65;;;;;;;25.01;53.87;94963.22;4972017;28;20220;-75
2022/07/04 07:51:58;;;;;;;13.13;5.68;;;;;;;25.02;54.59;94956.81;4971612;28;20204;-75
2022/07/04 07:54:47;;;;;;;11.65;5.18;;;;;;;25.11;53.79;94963.75;4971812;28;20260;-76
2022/07/04 07:57:50;;;;;;;8.45;4.60;;;;;;;25.38;52.59;94960.19;4972100;28;20204;-74
2022/07/04 08:00:48;;;;;;;11.00;5.07;;;;;;;25.64;52.62;94968.38;4971759;28;20208;-74
2022/07/04 08:06:28;;;;;;;11.27;4.95;;;;;;;25.91;52.16;94955.69;4971620;28;20204;-75
2022/07/04 08:09:20;;;;;;;11.90;5.35;;;;;;;25.90;52.48;94956.00;4975620;28;20582;-75
2022/07/04 08:12:09;;;;;;;9.55;5.30;;;;;;;26.03;52.63;94959.66;4970802;28;20614;-75
2022/07/04 08:15:08;;;;;;;11.18;5.15;;;;;;;26.03;52.22;94954.34;4975648;28;20691;-74
2022/07/04 08:20:50;;;;;;;8.40;5.03;;;;;;;26.21;52.91;94964.78;4976610;28;20327;-74
2022/07/04 08:23:34;;;;;;;9.93;5.30;;;;;;;26.36;53.57;94955.56;4975186;28;20209;-75
2022/07/04 08:32:15;;;;;;;12.80;5.60;;;;;;;26.62;52.41;94939.63;4974516;28;20305;-75
2022/07/04 08:35:02;;;;;;;13.23;6.15;;;;;;;26.75;52.52;94942.19;4974903;28;20221;-75
2022/07/04 08:38:00;;;;;;;16.23;6.43;;;;;;;26.77;51.75;94939.97;4974703;28;20205;-75
2022/07/04 08:40:54;;;;;;;9.48;5.38;;;;;;;26.78;52.77;94938.09;4975354;28;20695;-75
2022/07/04 08:43:49;;;;;;;8.65;6.10;;;;;;;26.90;53.47;94931.06;4974724;28;20667;-75
2022/07/04 08:46:42;;;;;;;10.02;5.65;;;;;;;26.92;51.94;94936.09;4974784;28;20209;-80
2022/07/04 08:49:40;;;;;;;12.63;5.45;;;;;;;26.93;52.26;94938.44;4975276;28;20240;-76
2022/07/04 08:52:36;;;;;;;10.27;6.93;;;;;;;26.89;53.70;94926.84;4975064;28;20308;-74
2022/07/04 09:01:14;;;;;;;8.73;6.20;;;;;;;27.22;53.54;94934.34;4974636;28;20208;-75
2022/07/04 09:03:59;;;;;;;10.70;6.50;;;;;;;27.31;54.39;94927.91;4974205;28;20206;-75
2022/07/04 09:07:08;;;;;;;12.15;6.25;;;;;;;27.46;54.03;94932.78;4974272;28;20211;-75
2022/07/04 09:09:51;;;;;;;13.70;6.60;;;;;;;27.58;52.88;94929.47;4974548;28;20211;-75
2022/07/04 09:12:43;;;;;;;10.23;6.60;;;;;;;27.63;53.77;94934.63;4974878;28;20212;-74
2022/07/04 09:15:31;;;;;;;10.57;6.47;;;;;;;27.72;54.34;94929.28;4974559;28;20213;-74
2022/07/04 09:18:32;;;;;;;8.30;6.35;;;;;;;27.86;53.68;94935.19;4968279;28;20204;-74
2022/07/04 09:27:37;;;;;;;9.25;5.55;;;;;;;28.78;49.42;94938.88;4970223;28;20287;-75
2022/07/04 09:30:30;;;;;;;15.15;6.30;;;;;;;28.91;49.16;94933.31;4974304;28;20239;-74
2022/07/04 09:33:18;;;;;;;10.35;6.28;;;;;;;28.96;48.20;94933.09;4974153;28;20762;-74
2022/07/04 09:36:24;;;;;;;8.75;6.28;;;;;;;29.09;49.23;94926.69;4971487;28;20204;-75
2022/07/04 09:39:37;;;;;;;9.27;5.85;;;;;;;29.21;47.41;94926.75;4974533;28;20219;-74
2022/07/04 09:42:32;;;;;;;8.30;5.85;;;;;;;29.36;47.44;94911.19;4974088;28;20209;-74
2022/07/04 09:45:23;;;;;;;9.85;5.80;;;;;;;29.56;46.99;94924.56;4974037;28;20205;-74
2022/07/04 09:48:12;;;;;;;6.25;5.57;;;;;;;29.64;45.58;94914.88;4973971;28;20296;-74
2022/07/04 09:51:07;;;;;;;10.75;5.68;;;;;;;29.76;45.81;94910.31;4974039;28;20197;-76
2022/07/04 09:53:49;;;;;;;9.40;5.57;;;;;;;29.89;45.05;94916.50;4973970;28;20676;-74
2022/07/04 09:56:59;;;;;;;7.88;6.18;;;;;;;30.13;45.57;94921.13;4973838;28;20656;-75
2022/07/04 10:00:03;;;;;;;9.18;5.88;;;;;;;30.17;44.81;94914.75;4972866;28;20201;-75
2022/07/04 10:05:40;;;;;;;12.40;6.50;;;;;;;30.21;46.44;94915.66;4974314;28;20884;-75
2022/07/04 10:08:28;;;;;;;10.52;5.80;;;;;;;30.26;44.82;94918.09;4973495;28;20676;-75
2022/07/04 10:11:12;;;;;;;8.93;6.28;;;;;;;30.35;44.81;94924.13;4973776;28;20201;-75
2022/07/04 10:13:57;;;;;;;8.30;6.35;;;;;;;30.40;44.17;94930.41;4973833;28;20228;-75
2022/07/04 10:16:58;;;;;;;8.68;6.45;;;;;;;30.47;45.11;94918.00;4973685;28;20209;-75
2022/07/04 10:19:50;;;;;;;10.13;6.47;;;;;;;30.66;45.16;94926.25;4973508;28;20204;-76
2022/07/04 10:22:35;;;;;;;10.10;6.50;;;;;;;30.87;45.12;94910.78;4972896;28;20240;-76
2022/07/04 10:25:31;;;;;;;9.45;6.18;;;;;;;31.06;44.85;94918.25;4973621;28;20231;-75
2022/07/04 10:28:23;;;;;;;11.27;6.63;;;;;;;31.15;44.90;94918.09;4972944;28;20207;-76
2022/07/04 10:31:14;;;;;;;11.23;6.07;;;;;;;31.39;45.13;94913.44;4972869;28;20203;-75
2022/07/04 10:34:27;;;;;;;10.27;6.78;;;;;;;31.58;43.79;94901.25;4972844;28;20209;-76
2022/07/04 10:37:21;;;;;;;6.90;6.20;;;;;;;31.50;42.48;94897.59;4973459;28;20665;-75
2022/07/04 10:40:11;;;;;;;10.60;6.18;;;;;;;31.41;42.66;94903.13;4972753;28;20215;-75
2022/07/04 10:42:56;;;;;;;9.70;6.50;;;;;;;31.44;44.15;94902.44;4970117;28;20213;-75
2022/07/04 10:45:49;;;;;;;8.25;6.00;;;;;;;31.62;42.91;94899.44;4973274;28;20552;-75
2022/07/04 10:48:42;;;;;;;10.30;6.65;;;;;;;31.93;44.39;94894.09;4972886;28;20200;-76
2022/07/04 10:51:55;;;;;;;7.82;6.30;;;;;;;32.20;42.82;94898.66;4972680;28;20213;-75
2022/07/04 10:54:51;;;;;;;11.90;6.47;;;;;;;32.50;41.83;94888.94;4972604;28;20217;-75
2022/07/04 10:57:48;;;;;;;8.25;6.22;;;;;;;32.76;41.15;94888.38;4972596;28;20204;-75
2022/07/04 11:00:50;;;;;;;11.00;6.82;;;;;;;32.95;41.61;94887.63;4972859;28;20215;-75
2022/07/04 11:03:39;;;;;;;9.95;6.30;;;;;;;33.21;40.44;94889.72;4972544;28;20297;-75
2022/07/04 11:06:57;;;;;;;12.38;7.15;;;;;;;33.34;40.96;94880.34;4972702;28;20671;-74
2022/07/04 11:10:21;;;;;;;10.32;6.32;;;;;;;33.23;40.59;94882.06;4972238;28;20235;-76
2022/07/04 11:13:30;;;;;;;7.82;6.40;;;;;;;33.42;40.89;94880.09;4972689;28;20652;-75
2022/07/04 11:16:24;;;;;;;8.18;7.07;;;;;;;33.54;39.76;94879.16;4972436;28;20240;-75
2022/07/04 11:19:16;;;;;;;7.10;6.40;;;;;;;33.83;39.75;94877.78;4972899;28;20875;-78
2022/07/04 11:22:10;;;;;;;11.60;6.55;;;;;;;33.99;39.22;94876.53;4972072;28;20240;-76
2022/07/04 11:24:56;;;;;;;8.93;6.30;;;;;;;33.93;39.18;94883.38;4972810;28;20660;-74
2022/07/04 11:27:39;;;;;;;12.80;6.00;;;;;;;33.63;39.33;94875.16;4969973;28;20278;-75
2022/07/04 11:30:27;;;;;;;8.15;6.30;;;;;;;33.43;40.50;94878.19;4972371;28;20663;-75
2022/07/04 11:33:31;;;;;;;8.95;6.43;;;;;;;33.74;40.21;94885.34;4971118;28;20288;-75
2022/07/04 11:36:22;;;;;;;7.05;6.20;;;;;;;34.05;39.53;94880.50;4972183;28;20706;-74
2022/07/04 11:39:18;;;;;;;7.30;6.50;;;;;;;34.44;39.25;94881.09;4972044;28;20205;-74
2022/07/04 11:45:13;;;;;;;7.78;6.30;;;;;;;35.05;38.58;94866.50;4976204;28;20199;-75
2022/07/04 11:48:04;;;;;;;11.43;6.35;;;;;;;35.16;37.03;94864.72;4976409;28;20208;-74
2022/07/04 11:50:55;;;;;;;6.97;6.25;;;;;;;35.14;37.15;94857.00;4976758;28;20204;-74
2022/07/04 11:53:47;;;;;;;6.80;5.93;;;;;;;34.87;37.10;94841.19;4976117;28;20212;-74
2022/07/04 11:56:37;;;;;;;6.82;6.07;;;;;;;34.70;38.15;94845.22;4976090;28;20240;-75
2022/07/04 11:59:41;;;;;;;11.10;6.28;;;;;;;34.75;38.01;94845.69;4976309;28;20259;-74
2022/07/04 12:02:33;;;;;;;9.80;6.07;;;;;;;34.98;38.26;94836.69;4975692;28;20212;-76
2022/07/04 12:05:31;;;;;;;10.82;6.47;;;;;;;34.87;37.91;94830.38;4975977;28;20750;-74
2022/07/04 12:08:12;;;;;;;8.10;6.03;;;;;;;34.81;37.97;94842.69;4975600;28;20271;-75
2022/07/04 12:11:05;;;;;;;8.48;6.20;;;;;;;34.88;37.41;94837.34;4971221;28;20243;-74
2022/07/04 12:13:47;;;;;;;9.52;6.82;;;;;;;34.76;38.08;94825.63;4975699;28;20201;-74
2022/07/04 12:16:44;;;;;;;9.20;6.28;;;;;;;35.06;37.98;94824.81;4973380;28;20638;-74
2022/07/04 12:19:26;;;;;;;7.90;6.30;;;;;;;35.40;37.76;94822.88;4975330;28;20633;-74
2022/07/04 12:22:17;;;;;;;7.20;5.93;;;;;;;35.65;37.41;94816.59;4974027;28;20735;-75
2022/07/04 12:25:07;;;;;;;10.23;6.20;;;;;;;35.66;37.14;94820.06;4975603;28;20197;-75
2022/07/04 12:27:59;;;;;;;8.25;6.18;;;;;;;35.52;37.24;94818.00;4975534;28;20205;-74
2022/07/04 12:31:01;;;;;;;7.05;5.68;;;;;;;35.63;36.98;94818.13;4966188;28;20230;-74
2022/07/04 12:34:09;;;;;;;9.88;6.35;;;;;;;35.35;38.14;94810.50;4975325;28;20590;-75
2022/07/04 12:37:14;;;;;;;11.23;6.65;;;;;;;35.00;37.85;94816.25;4975186;28;20287;-74
2022/07/04 12:40:08;;;;;;;7.82;6.20;;;;;;;34.58;38.70;94808.41;4975776;28;20208;-74
2022/07/04 12:43:00;;;;;;;9.95;6.22;;;;;;;34.45;38.95;94808.97;4971221;28;20376;-74
2022/07/04 12:46:01;;;;;;;10.70;6.85;;;;;;;34.38;38.45;94820.44;4974945;28;20197;-74
2022/07/04 12:48:51;;;;;;;11.55;6.35;;;;;;;34.52;39.69;94820.63;4974826;28;20209;-74
2022/07/04 12:51:50;;;;;;;7.57;6.07;;;;;;;34.97;39.02;94814.28;4974529;28;20660;-74
2022/07/04 12:54:45;;;;;;;9.68;6.28;;;;;;;35.25;37.67;94811.16;4974833;28;20671;-75
2022/07/04 12:57:38;;;;;;;9.23;6.10;;;;;;;35.38;38.04;94811.66;4974866;28;20610;-74
2022/07/04 13:00:20;;;;;;;9.73;6.18;;;;;;;35.61;36.97;94801.47;4974770;28;20282;-75
2022/07/04 13:03:11;;;;;;;9.50;5.95;;;;;;;35.90;37.29;94807.91;4974796;28;20679;-76
2022/07/04 13:05:58;;;;;;;8.90;6.18;;;;;;;35.84;36.23;94805.56;4974747;28;20209;-75
2022/07/04 13:09:01;;;;;;;8.32;6.40;;;;;;;35.49;37.00;94799.81;4974945;28;20295;-75
2022/07/04 13:14:34;;;;;;;12.05;6.25;;;;;;;35.83;37.64;94798.56;4975229;28;20208;-74
2022/07/04 13:17:21;;;;;;;9.90;5.90;;;;;;;36.16;36.73;94794.97;4974541;28;20212;-75
2022/07/04 13:29:09;;;;;;;9.10;6.07;;;;;;;36.44;35.47;94791.66;4936034;29;20205;-75
2022/07/04 13:32:04;;;;;;;12.70;6.28;;;;;;;36.43;35.18;94787.38;4936085;29;20208;-75
2022/07/04 13:34:52;;;;;;;9.68;6.97;;;;;;;36.29;35.16;94784.59;4935465;29;20206;-74
2022/07/04 13:37:39;;;;;;;11.32;6.68;;;;;;;36.20;35.58;94784.16;4935682;29;20364;-74
2022/07/04 13:40:21;;;;;;;7.35;6.28;;;;;;;36.35;34.70;94777.66;4932647;29;20316;-75
2022/07/04 13:43:17;;;;;;;6.97;6.30;;;;;;;36.25;35.09;94773.72;4935740;29;20736;-74
2022/07/04 13:46:05;;;;;;;8.07;5.90;;;;;;;36.24;34.78;94766.00;4936122;29;20206;-74
2022/07/04 13:48:44;;;;;;;7.85;6.28;;;;;;;36.30;35.15;94778.03;4935909;29;20214;-75
2022/07/04 13:51:40;;;;;;;7.35;6.43;;;;;;;36.39;35.26;94775.75;4935450;29;20209;-75
2022/07/04 13:54:34;;;;;;;6.90;5.90;;;;;;;36.52;35.77;94768.09;4935422;29;20252;-75
2022/07/04 13:57:26;;;;;;;7.03;6.32;;;;;;;36.71;35.48;94767.81;4935570;29;20202;-75
2022/07/04 14:00:22;;;;;;;10.07;6.10;;;;;;;36.86;35.75;94756.63;4935464;29;20238;-75
2022/07/04 14:03:13;;;;;;;9.15;5.68;;;;;;;36.97;35.45;94757.44;4935084;29;20289;-75
2022/07/04 14:06:05;;;;;;;7.75;5.95;;;;;;;37.09;34.85;94758.28;4935259;29;20670;-75
2022/07/04 14:11:43;;;;;;;8.15;6.78;;;;;;;37.01;34.51;94751.25;4934891;29;20245;-75
2022/07/04 14:14:26;;;;;;;10.77;6.25;;;;;;;37.11;34.81;94748.59;4934904;29;20202;-75
2022/07/04 14:17:20;;;;;;;8.88;6.07;;;;;;;37.03;34.58;94746.25;4935016;29;20684;-75
2022/07/04 14:20:05;;;;;;;10.57;6.70;;;;;;;36.87;34.64;94739.22;4934402;29;20209;-74
2022/07/04 14:22:54;;;;;;;13.30;7.30;;;;;;;36.58;35.29;94734.84;4973579;28;20221;-75
2022/07/04 14:25:44;;;;;;;8.82;6.70;;;;;;;36.68;36.00;94734.09;4973480;28;20215;-75
2022/07/04 14:28:34;;;;;;;7.18;6.03;;;;;;;36.52;36.14;94741.00;4973136;28;20667;-75
2022/07/04 14:31:14;;;;;;;15.35;6.95;;;;;;;36.51;36.21;94744.88;4973206;28;20294;-77
2022/07/04 14:34:12;;;;;;;12.80;6.57;;;;;;;36.30;35.98;94735.47;4972812;28;20637;-75
2022/07/04 14:37:06;;;;;;;7.68;6.18;;;;;;;35.73;36.13;94738.97;4972909;28;20229;-74
2022/07/04 14:40:02;;;;;;;8.63;6.20;;;;;;;35.36;38.07;94738.22;4972834;28;20240;-75
2022/07/04 14:43:01;;;;;;;12.15;6.70;;;;;;;35.00;37.87;94732.47;4973214;28;20303;-76
2022/07/04 14:46:03;;;;;;;10.05;7.07;;;;;;;34.51;38.58;94721.88;4972572;28;20295;-75